sensor_id;sensor_type;location;lat;lon;timestamp;P1;durP1;ratioP1;P2;durP2;ratioP2
4525;SDS011;2275;52.208;8.804;2022-09-24T00:01:52;16.98;;;10.00;;
4525;SDS011;2275;52.208;8.804;2022-09-24T00:04:19;15.55;;;10.50;;
4525;SDS011;2275;52.208;8.804;2022-09-24T00:06:48;15.85;;;11.12;;
4525;SDS011;2275;52.208;8.804;2022-09-24T00:09:17;13.88;;;10.63;;
4525;SDS011;2275;52.208;8.804;2022-09-24T00:11:43;15.13;;;10.87;;
4525;SDS011;2275;52.208;8.804;2022-09-24T00:14:10;17.00;;;10.50;;
4525;SDS011;2275;52.208;8.804;2022-09-24T00:16:38;19.27;;;11.27;;
4525;SDS011;2275;52.208;8.804;2022-09-24T00:19:05;21.73;;;11.02;;
4525;SDS011;2275;52.208;8.804;2022-09-24T00:21:32;17.20;;;10.00;;
4525;SDS011;2275;52.208;8.804;2022-09-24T00:24:00;18.48;;;11.70;;
4525;SDS011;2275;52.208;8.804;2022-09-24T00:26:26;16.58;;;10.60;;
4525;SDS011;2275;52.208;8.804;2022-09-24T00:28:59;16.35;;;11.55;;
4525;SDS011;2275;52.208;8.804;2022-09-24T00:31:26;17.23;;;10.60;;
4525;SDS011;2275;52.208;8.804;2022-09-24T00:33:53;17.10;;;11.27;;
4525;SDS011;2275;52.208;8.804;2022-09-24T00:36:20;15.00;;;10.90;;
4525;SDS011;2275;52.208;8.804;2022-09-24T00:38:49;19.02;;;11.25;;
4525;SDS011;2275;52.208;8.804;2022-09-24T00:41:15;16.35;;;11.32;;
4525;SDS011;2275;52.208;8.804;2022-09-24T00:43:42;14.32;;;9.88;;
4525;SDS011;2275;52.208;8.804;2022-09-24T00:46:13;15.10;;;10.40;;
4525;SDS011;2275;52.208;8.804;2022-09-24T00:48:44;17.87;;;10.02;;
4525;SDS011;2275;52.208;8.804;2022-09-24T00:51:11;15.60;;;10.77;;
4525;SDS011;2275;52.208;8.804;2022-09-24T00:53:39;20.40;;;10.98;;
4525;SDS011;2275;52.208;8.804;2022-09-24T00:56:05;15.70;;;10.70;;
4525;SDS011;2275;52.208;8.804;2022-09-24T00:58:32;14.35;;;9.75;;
4525;SDS011;2275;52.208;8.804;2022-09-24T01:01:03;16.65;;;10.60;;
4525;SDS011;2275;52.208;8.804;2022-09-24T01:03:31;15.07;;;11.15;;
4525;SDS011;2275;52.208;8.804;2022-09-24T01:05:58;14.95;;;11.10;;
4525;SDS011;2275;52.208;8.804;2022-09-24T01:08:25;15.10;;;10.20;;
4525;SDS011;2275;52.208;8.804;2022-09-24T01:10:57;19.23;;;11.48;;
4525;SDS011;2275;52.208;8.804;2022-09-24T01:13:45;13.73;;;10.02;;
4525;SDS011;2275;52.208;8.804;2022-09-24T01:16:28;16.25;;;10.75;;
4525;SDS011;2275;52.208;8.804;2022-09-24T01:18:58;15.20;;;10.88;;
4525;SDS011;2275;52.208;8.804;2022-09-24T01:21:26;15.00;;;11.32;;
4525;SDS011;2275;52.208;8.804;2022-09-24T01:24:00;17.25;;;11.52;;
4525;SDS011;2275;52.208;8.804;2022-09-24T01:26:32;14.80;;;11.02;;
4525;SDS011;2275;52.208;8.804;2022-09-24T01:29:21;15.52;;;10.80;;
4525;SDS011;2275;52.208;8.804;2022-09-24T01:31:51;16.80;;;11.00;;
4525;SDS011;2275;52.208;8.804;2022-09-24T01:34:18;15.77;;;11.50;;
4525;SDS011;2275;52.208;8.804;2022-09-24T01:36:43;12.95;;;10.05;;
4525;SDS011;2275;52.208;8.804;2022-09-24T01:39:11;16.45;;;10.95;;
4525;SDS011;2275;52.208;8.804;2022-09-24T01:41:38;14.07;;;10.45;;
4525;SDS011;2275;52.208;8.804;2022-09-24T01:44:05;16.95;;;10.32;;
4525;SDS011;2275;52.208;8.804;2022-09-24T01:46:36;23.20;;;9.60;;
4525;SDS011;2275;52.208;8.804;2022-09-24T01:49:00;12.98;;;10.40;;
4525;SDS011;2275;52.208;8.804;2022-09-24T01:51:29;17.55;;;9.93;;
4525;SDS011;2275;52.208;8.804;2022-09-24T01:53:59;13.80;;;10.18;;
4525;SDS011;2275;52.208;8.804;2022-09-24T01:56:27;14.85;;;11.38;;
4525;SDS011;2275;52.208;8.804;2022-09-24T01:58:59;14.85;;;9.82;;
4525;SDS011;2275;52.208;8.804;2022-09-24T02:01:29;15.73;;;11.23;;
4525;SDS011;2275;52.208;8.804;2022-09-24T02:03:56;11.40;;;8.95;;
4525;SDS011;2275;52.208;8.804;2022-09-24T02:06:25;11.95;;;9.20;;
4525;SDS011;2275;52.208;8.804;2022-09-24T02:08:55;15.32;;;11.10;;
4525;SDS011;2275;52.208;8.804;2022-09-24T02:11:22;15.20;;;10.90;;
4525;SDS011;2275;52.208;8.804;2022-09-24T02:13:53;16.92;;;10.68;;
4525;SDS011;2275;52.208;8.804;2022-09-24T02:16:20;15.52;;;9.75;;
4525;SDS011;2275;52.208;8.804;2022-09-24T02:18:47;14.45;;;9.98;;
4525;SDS011;2275;52.208;8.804;2022-09-24T02:21:14;13.73;;;9.73;;
4525;SDS011;2275;52.208;8.804;2022-09-24T02:23:44;13.60;;;10.73;;
4525;SDS011;2275;52.208;8.804;2022-09-24T02:26:13;15.63;;;10.85;;
4525;SDS011;2275;52.208;8.804;2022-09-24T02:28:40;14.67;;;11.60;;
4525;SDS011;2275;52.208;8.804;2022-09-24T02:31:10;15.07;;;10.93;;
4525;SDS011;2275;52.208;8.804;2022-09-24T02:33:37;18.15;;;11.90;;
4525;SDS011;2275;52.208;8.804;2022-09-24T02:36:09;14.35;;;10.23;;
4525;SDS011;2275;52.208;8.804;2022-09-24T02:38:37;13.07;;;10.32;;
4525;SDS011;2275;52.208;8.804;2022-09-24T02:41:04;16.30;;;11.07;;
4525;SDS011;2275;52.208;8.804;2022-09-24T02:43:32;15.50;;;11.20;;
4525;SDS011;2275;52.208;8.804;2022-09-24T02:46:00;16.23;;;12.20;;
4525;SDS011;2275;52.208;8.804;2022-09-24T02:48:27;21.77;;;11.50;;
4525;SDS011;2275;52.208;8.804;2022-09-24T02:50:54;16.60;;;11.70;;
4525;SDS011;2275;52.208;8.804;2022-09-24T02:53:21;20.42;;;12.07;;
4525;SDS011;2275;52.208;8.804;2022-09-24T02:55:48;16.20;;;10.55;;
4525;SDS011;2275;52.208;8.804;2022-09-24T02:58:15;16.62;;;12.02;;
4525;SDS011;2275;52.208;8.804;2022-09-24T03:00:42;17.67;;;12.77;;
4525;SDS011;2275;52.208;8.804;2022-09-24T03:03:10;19.02;;;12.30;;
4525;SDS011;2275;52.208;8.804;2022-09-24T03:05:37;19.37;;;12.85;;
4525;SDS011;2275;52.208;8.804;2022-09-24T03:08:04;15.98;;;12.32;;
4525;SDS011;2275;52.208;8.804;2022-09-24T03:10:32;17.58;;;12.05;;
4525;SDS011;2275;52.208;8.804;2022-09-24T03:12:59;16.48;;;11.40;;
4525;SDS011;2275;52.208;8.804;2022-09-24T03:15:26;16.30;;;11.68;;
4525;SDS011;2275;52.208;8.804;2022-09-24T03:17:53;22.50;;;14.02;;
4525;SDS011;2275;52.208;8.804;2022-09-24T03:20:20;22.08;;;12.98;;
4525;SDS011;2275;52.208;8.804;2022-09-24T03:22:50;14.95;;;12.40;;
4525;SDS011;2275;52.208;8.804;2022-09-24T03:25:17;16.27;;;12.10;;
4525;SDS011;2275;52.208;8.804;2022-09-24T03:27:45;20.52;;;12.37;;
4525;SDS011;2275;52.208;8.804;2022-09-24T03:30:13;16.33;;;12.88;;
4525;SDS011;2275;52.208;8.804;2022-09-24T03:32:46;19.67;;;13.55;;
4525;SDS011;2275;52.208;8.804;2022-09-24T03:35:12;19.77;;;13.13;;
4525;SDS011;2275;52.208;8.804;2022-09-24T03:37:40;19.58;;;12.40;;
4525;SDS011;2275;52.208;8.804;2022-09-24T03:40:08;16.33;;;12.60;;
4525;SDS011;2275;52.208;8.804;2022-09-24T03:42:35;19.92;;;13.10;;
4525;SDS011;2275;52.208;8.804;2022-09-24T03:45:02;17.77;;;12.73;;
4525;SDS011;2275;52.208;8.804;2022-09-24T03:47:31;20.65;;;13.85;;
4525;SDS011;2275;52.208;8.804;2022-09-24T03:49:58;21.67;;;13.90;;
4525;SDS011;2275;52.208;8.804;2022-09-24T03:52:25;19.15;;;13.82;;
4525;SDS011;2275;52.208;8.804;2022-09-24T03:54:52;15.95;;;12.15;;
4525;SDS011;2275;52.208;8.804;2022-09-24T03:57:19;18.35;;;13.68;;
4525;SDS011;2275;52.208;8.804;2022-09-24T03:59:46;21.17;;;13.60;;
4525;SDS011;2275;52.208;8.804;2022-09-24T04:02:13;18.85;;;13.05;;
4525;SDS011;2275;52.208;8.804;2022-09-24T04:04:41;22.15;;;15.18;;
4525;SDS011;2275;52.208;8.804;2022-09-24T04:07:08;21.75;;;13.95;;
4525;SDS011;2275;52.208;8.804;2022-09-24T04:09:35;22.98;;;13.88;;
4525;SDS011;2275;52.208;8.804;2022-09-24T04:12:02;16.77;;;12.40;;
4525;SDS011;2275;52.208;8.804;2022-09-24T04:14:29;22.35;;;12.40;;
4525;SDS011;2275;52.208;8.804;2022-09-24T04:16:56;18.37;;;12.82;;
4525;SDS011;2275;52.208;8.804;2022-09-24T04:19:24;19.90;;;13.05;;
4525;SDS011;2275;52.208;8.804;2022-09-24T04:21:51;20.98;;;14.70;;
4525;SDS011;2275;52.208;8.804;2022-09-24T04:24:18;23.20;;;13.70;;
4525;SDS011;2275;52.208;8.804;2022-09-24T04:26:45;16.48;;;12.60;;
4525;SDS011;2275;52.208;8.804;2022-09-24T04:29:12;18.33;;;12.80;;
4525;SDS011;2275;52.208;8.804;2022-09-24T04:31:39;17.95;;;13.43;;
4525;SDS011;2275;52.208;8.804;2022-09-24T04:34:07;19.17;;;13.70;;
4525;SDS011;2275;52.208;8.804;2022-09-24T04:36:34;21.50;;;15.80;;
4525;SDS011;2275;52.208;8.804;2022-09-24T04:39:00;18.35;;;14.25;;
4525;SDS011;2275;52.208;8.804;2022-09-24T04:41:29;21.42;;;14.02;;
4525;SDS011;2275;52.208;8.804;2022-09-24T04:43:56;22.25;;;15.25;;
4525;SDS011;2275;52.208;8.804;2022-09-24T04:46:22;22.17;;;13.18;;
4525;SDS011;2275;52.208;8.804;2022-09-24T04:48:49;22.05;;;14.73;;
4525;SDS011;2275;52.208;8.804;2022-09-24T04:51:17;21.45;;;13.98;;
4525;SDS011;2275;52.208;8.804;2022-09-24T04:53:46;23.65;;;15.15;;
4525;SDS011;2275;52.208;8.804;2022-09-24T05:05:52;17.33;;;11.40;;
4525;SDS011;2275;52.208;8.804;2022-09-24T05:08:21;22.37;;;14.95;;
4525;SDS011;2275;52.208;8.804;2022-09-24T05:10:48;19.48;;;13.40;;
4525;SDS011;2275;52.208;8.804;2022-09-24T05:13:15;19.02;;;13.85;;
4525;SDS011;2275;52.208;8.804;2022-09-24T05:15:43;18.40;;;14.25;;
4525;SDS011;2275;52.208;8.804;2022-09-24T05:18:10;19.27;;;13.80;;
4525;SDS011;2275;52.208;8.804;2022-09-24T05:20:37;17.80;;;13.40;;
4525;SDS011;2275;52.208;8.804;2022-09-24T05:23:04;20.88;;;16.23;;
4525;SDS011;2275;52.208;8.804;2022-09-24T05:25:31;20.33;;;13.62;;
4525;SDS011;2275;52.208;8.804;2022-09-24T05:27:59;21.45;;;15.23;;
4525;SDS011;2275;52.208;8.804;2022-09-24T05:30:26;22.67;;;16.05;;
4525;SDS011;2275;52.208;8.804;2022-09-24T05:32:54;22.37;;;16.10;;
4525;SDS011;2275;52.208;8.804;2022-09-24T05:35:21;22.23;;;15.55;;
4525;SDS011;2275;52.208;8.804;2022-09-24T05:37:49;23.45;;;15.80;;
4525;SDS011;2275;52.208;8.804;2022-09-24T05:40:17;21.00;;;14.95;;
4525;SDS011;2275;52.208;8.804;2022-09-24T05:42:50;22.13;;;15.10;;
4525;SDS011;2275;52.208;8.804;2022-09-24T05:45:18;21.27;;;15.10;;
4525;SDS011;2275;52.208;8.804;2022-09-24T05:47:46;22.87;;;17.08;;
4525;SDS011;2275;52.208;8.804;2022-09-24T05:50:13;25.75;;;17.85;;
4525;SDS011;2275;52.208;8.804;2022-09-24T05:52:40;31.92;;;19.30;;
4525;SDS011;2275;52.208;8.804;2022-09-24T05:55:08;23.33;;;18.62;;
4525;SDS011;2275;52.208;8.804;2022-09-24T05:57:36;22.92;;;17.60;;
4525;SDS011;2275;52.208;8.804;2022-09-24T06:00:04;22.48;;;17.90;;
4525;SDS011;2275;52.208;8.804;2022-09-24T06:02:33;25.23;;;17.27;;
4525;SDS011;2275;52.208;8.804;2022-09-24T06:05:00;20.67;;;16.73;;
4525;SDS011;2275;52.208;8.804;2022-09-24T06:07:27;28.58;;;17.95;;
4525;SDS011;2275;52.208;8.804;2022-09-24T06:09:56;24.73;;;18.42;;
4525;SDS011;2275;52.208;8.804;2022-09-24T06:12:26;26.52;;;19.05;;
4525;SDS011;2275;52.208;8.804;2022-09-24T06:14:53;22.83;;;16.98;;
4525;SDS011;2275;52.208;8.804;2022-09-24T06:17:19;22.98;;;17.80;;
4525;SDS011;2275;52.208;8.804;2022-09-24T06:19:46;26.85;;;19.12;;
4525;SDS011;2275;52.208;8.804;2022-09-24T06:22:14;37.13;;;21.35;;
4525;SDS011;2275;52.208;8.804;2022-09-24T06:24:40;28.23;;;20.70;;
4525;SDS011;2275;52.208;8.804;2022-09-24T06:27:08;32.00;;;20.30;;
4525;SDS011;2275;52.208;8.804;2022-09-24T06:29:37;42.42;;;27.13;;
4525;SDS011;2275;52.208;8.804;2022-09-24T06:32:05;49.35;;;30.83;;
4525;SDS011;2275;52.208;8.804;2022-09-24T06:34:34;31.17;;;20.83;;
4525;SDS011;2275;52.208;8.804;2022-09-24T06:40:00;32.77;;;24.50;;
4525;SDS011;2275;52.208;8.804;2022-09-24T06:42:30;35.53;;;23.50;;
4525;SDS011;2275;52.208;8.804;2022-09-24T06:44:58;32.85;;;21.77;;
4525;SDS011;2275;52.208;8.804;2022-09-24T06:47:25;28.55;;;21.10;;
4525;SDS011;2275;52.208;8.804;2022-09-24T06:49:52;28.15;;;20.95;;
4525;SDS011;2275;52.208;8.804;2022-09-24T06:52:19;30.60;;;22.52;;
4525;SDS011;2275;52.208;8.804;2022-09-24T06:54:46;30.30;;;22.20;;
4525;SDS011;2275;52.208;8.804;2022-09-24T06:57:14;33.05;;;21.80;;
4525;SDS011;2275;52.208;8.804;2022-09-24T06:59:41;32.92;;;22.15;;
4525;SDS011;2275;52.208;8.804;2022-09-24T07:02:08;33.65;;;21.70;;
4525;SDS011;2275;52.208;8.804;2022-09-24T07:04:35;29.63;;;21.98;;
4525;SDS011;2275;52.208;8.804;2022-09-24T07:07:03;34.92;;;23.83;;
4525;SDS011;2275;52.208;8.804;2022-09-24T07:09:36;31.90;;;24.30;;
4525;SDS011;2275;52.208;8.804;2022-09-24T07:12:03;33.83;;;21.02;;
4525;SDS011;2275;52.208;8.804;2022-09-24T07:14:31;32.40;;;21.80;;
4525;SDS011;2275;52.208;8.804;2022-09-24T07:16:58;32.33;;;21.15;;
4525;SDS011;2275;52.208;8.804;2022-09-24T07:19:26;35.78;;;22.40;;
4525;SDS011;2275;52.208;8.804;2022-09-24T07:21:54;38.58;;;24.08;;
4525;SDS011;2275;52.208;8.804;2022-09-24T07:24:21;31.87;;;23.87;;
4525;SDS011;2275;52.208;8.804;2022-09-24T07:26:48;36.83;;;24.25;;
4525;SDS011;2275;52.208;8.804;2022-09-24T07:29:16;38.90;;;22.33;;
4525;SDS011;2275;52.208;8.804;2022-09-24T07:31:43;34.15;;;21.52;;
4525;SDS011;2275;52.208;8.804;2022-09-24T07:34:12;53.87;;;27.50;;
4525;SDS011;2275;52.208;8.804;2022-09-24T07:36:39;57.92;;;31.87;;
4525;SDS011;2275;52.208;8.804;2022-09-24T07:39:07;36.45;;;25.05;;
4525;SDS011;2275;52.208;8.804;2022-09-24T07:41:34;33.25;;;22.77;;
4525;SDS011;2275;52.208;8.804;2022-09-24T07:44:01;35.78;;;22.85;;
4525;SDS011;2275;52.208;8.804;2022-09-24T07:46:28;34.08;;;20.83;;
4525;SDS011;2275;52.208;8.804;2022-09-24T07:48:56;29.92;;;19.00;;
4525;SDS011;2275;52.208;8.804;2022-09-24T07:51:23;28.15;;;19.15;;
4525;SDS011;2275;52.208;8.804;2022-09-24T07:53:52;25.77;;;18.30;;
4525;SDS011;2275;52.208;8.804;2022-09-24T07:56:19;31.08;;;21.00;;
4525;SDS011;2275;52.208;8.804;2022-09-24T07:58:47;32.10;;;19.90;;
4525;SDS011;2275;52.208;8.804;2022-09-24T08:01:17;30.23;;;19.00;;
4525;SDS011;2275;52.208;8.804;2022-09-24T08:03:44;27.58;;;18.42;;
4525;SDS011;2275;52.208;8.804;2022-09-24T08:06:12;27.75;;;19.73;;
4525;SDS011;2275;52.208;8.804;2022-09-24T08:08:40;29.70;;;19.42;;
4525;SDS011;2275;52.208;8.804;2022-09-24T08:11:10;32.92;;;20.58;;
4525;SDS011;2275;52.208;8.804;2022-09-24T08:13:38;32.95;;;20.00;;
4525;SDS011;2275;52.208;8.804;2022-09-24T08:16:05;28.12;;;19.62;;
4525;SDS011;2275;52.208;8.804;2022-09-24T08:18:32;29.50;;;20.90;;
4525;SDS011;2275;52.208;8.804;2022-09-24T08:21:03;34.17;;;21.05;;
4525;SDS011;2275;52.208;8.804;2022-09-24T08:23:31;43.47;;;31.10;;
4525;SDS011;2275;52.208;8.804;2022-09-24T08:26:00;29.75;;;18.50;;
4525;SDS011;2275;52.208;8.804;2022-09-24T08:28:28;27.52;;;19.52;;
4525;SDS011;2275;52.208;8.804;2022-09-24T08:30:58;24.83;;;18.30;;
4525;SDS011;2275;52.208;8.804;2022-09-24T08:33:25;25.73;;;17.37;;
4525;SDS011;2275;52.208;8.804;2022-09-24T08:35:51;27.50;;;18.90;;
4525;SDS011;2275;52.208;8.804;2022-09-24T08:38:19;29.70;;;19.27;;
4525;SDS011;2275;52.208;8.804;2022-09-24T08:43:31;24.05;;;18.27;;
4525;SDS011;2275;52.208;8.804;2022-09-24T08:45:58;26.05;;;17.55;;
4525;SDS011;2275;52.208;8.804;2022-09-24T08:48:32;25.77;;;17.15;;
4525;SDS011;2275;52.208;8.804;2022-09-24T08:50:59;27.77;;;18.15;;
4525;SDS011;2275;52.208;8.804;2022-09-24T08:53:28;26.58;;;16.77;;
4525;SDS011;2275;52.208;8.804;2022-09-24T08:55:57;25.95;;;18.70;;
4525;SDS011;2275;52.208;8.804;2022-09-24T08:58:28;23.45;;;16.20;;
4525;SDS011;2275;52.208;8.804;2022-09-24T09:01:04;31.08;;;21.58;;
4525;SDS011;2275;52.208;8.804;2022-09-24T09:04:12;24.37;;;16.80;;
4525;SDS011;2275;52.208;8.804;2022-09-24T09:06:24;22.58;;;15.80;;
4525;SDS011;2275;52.208;8.804;2022-09-24T09:08:54;23.05;;;14.50;;
4525;SDS011;2275;52.208;8.804;2022-09-24T09:11:22;23.33;;;14.10;;
4525;SDS011;2275;52.208;8.804;2022-09-24T09:13:51;20.02;;;13.15;;
4525;SDS011;2275;52.208;8.804;2022-09-24T09:18:50;22.08;;;14.77;;
4525;SDS011;2275;52.208;8.804;2022-09-24T09:23:52;24.75;;;15.45;;
4525;SDS011;2275;52.208;8.804;2022-09-24T09:26:19;21.42;;;13.75;;
4525;SDS011;2275;52.208;8.804;2022-09-24T09:28:46;18.60;;;13.05;;
4525;SDS011;2275;52.208;8.804;2022-09-24T09:31:31;19.20;;;12.52;;
4525;SDS011;2275;52.208;8.804;2022-09-24T09:34:05;20.48;;;13.93;;
4525;SDS011;2275;52.208;8.804;2022-09-24T09:36:36;21.62;;;12.75;;
4525;SDS011;2275;52.208;8.804;2022-09-24T09:39:18;19.58;;;13.68;;
4525;SDS011;2275;52.208;8.804;2022-09-24T09:44:46;18.62;;;13.30;;
4525;SDS011;2275;52.208;8.804;2022-09-24T09:47:21;19.25;;;13.00;;
4525;SDS011;2275;52.208;8.804;2022-09-24T09:49:46;21.02;;;14.40;;
4525;SDS011;2275;52.208;8.804;2022-09-24T09:52:15;18.87;;;12.25;;
4525;SDS011;2275;52.208;8.804;2022-09-24T09:54:41;21.08;;;12.90;;
4525;SDS011;2275;52.208;8.804;2022-09-24T09:57:11;19.05;;;12.30;;
4525;SDS011;2275;52.208;8.804;2022-09-24T09:59:38;24.02;;;16.23;;
4525;SDS011;2275;52.208;8.804;2022-09-24T10:02:09;20.20;;;12.63;;
4525;SDS011;2275;52.208;8.804;2022-09-24T10:04:37;22.23;;;14.07;;
4525;SDS011;2275;52.208;8.804;2022-09-24T10:07:12;22.40;;;13.75;;
4525;SDS011;2275;52.208;8.804;2022-09-24T10:09:39;20.48;;;14.18;;
4525;SDS011;2275;52.208;8.804;2022-09-24T10:12:07;18.98;;;13.23;;
4525;SDS011;2275;52.208;8.804;2022-09-24T10:14:34;18.73;;;13.13;;
4525;SDS011;2275;52.208;8.804;2022-09-24T10:17:03;19.30;;;13.82;;
4525;SDS011;2275;52.208;8.804;2022-09-24T10:19:33;19.70;;;12.93;;
4525;SDS011;2275;52.208;8.804;2022-09-24T10:22:06;18.60;;;13.50;;
4525;SDS011;2275;52.208;8.804;2022-09-24T10:24:32;21.48;;;13.05;;
4525;SDS011;2275;52.208;8.804;2022-09-24T10:26:59;16.85;;;11.85;;
4525;SDS011;2275;52.208;8.804;2022-09-24T10:29:29;18.15;;;12.52;;
4525;SDS011;2275;52.208;8.804;2022-09-24T10:32:03;20.75;;;13.45;;
4525;SDS011;2275;52.208;8.804;2022-09-24T10:34:30;20.42;;;13.38;;
4525;SDS011;2275;52.208;8.804;2022-09-24T10:37:00;20.73;;;14.10;;
4525;SDS011;2275;52.208;8.804;2022-09-24T10:39:26;20.88;;;14.48;;
4525;SDS011;2275;52.208;8.804;2022-09-24T10:41:54;23.03;;;13.97;;
4525;SDS011;2275;52.208;8.804;2022-09-24T10:44:23;19.65;;;13.73;;
4525;SDS011;2275;52.208;8.804;2022-09-24T10:47:11;21.70;;;14.73;;
4525;SDS011;2275;52.208;8.804;2022-09-24T10:49:40;21.15;;;13.80;;
4525;SDS011;2275;52.208;8.804;2022-09-24T10:52:24;23.98;;;12.70;;
4525;SDS011;2275;52.208;8.804;2022-09-24T10:57:27;22.00;;;15.35;;
4525;SDS011;2275;52.208;8.804;2022-09-24T11:00:15;24.42;;;15.45;;
4525;SDS011;2275;52.208;8.804;2022-09-24T11:02:56;29.10;;;19.83;;
4525;SDS011;2275;52.208;8.804;2022-09-24T11:05:32;24.75;;;18.80;;
4525;SDS011;2275;52.208;8.804;2022-09-24T11:08:00;25.48;;;16.85;;
4525;SDS011;2275;52.208;8.804;2022-09-24T11:10:35;26.25;;;17.95;;
4525;SDS011;2275;52.208;8.804;2022-09-24T11:13:01;29.17;;;19.20;;
4525;SDS011;2275;52.208;8.804;2022-09-24T11:15:32;28.67;;;18.95;;
4525;SDS011;2275;52.208;8.804;2022-09-24T11:20:43;27.57;;;18.90;;
4525;SDS011;2275;52.208;8.804;2022-09-24T11:23:26;28.23;;;19.65;;
4525;SDS011;2275;52.208;8.804;2022-09-24T11:25:51;28.05;;;15.85;;
4525;SDS011;2275;52.208;8.804;2022-09-24T11:38:09;21.33;;;13.05;;
4525;SDS011;2275;52.208;8.804;2022-09-24T11:40:15;21.87;;;13.95;;
4525;SDS011;2275;52.208;8.804;2022-09-24T11:42:54;22.50;;;15.70;;
4525;SDS011;2275;52.208;8.804;2022-09-24T11:45:27;23.25;;;16.83;;
4525;SDS011;2275;52.208;8.804;2022-09-24T11:48:04;21.50;;;14.85;;
4525;SDS011;2275;52.208;8.804;2022-09-24T11:50:32;21.83;;;13.25;;
4525;SDS011;2275;52.208;8.804;2022-09-24T11:53:13;23.55;;;16.90;;
4525;SDS011;2275;52.208;8.804;2022-09-24T11:55:42;27.52;;;17.55;;
4525;SDS011;2275;52.208;8.804;2022-09-24T11:58:13;24.42;;;16.33;;
4525;SDS011;2275;52.208;8.804;2022-09-24T12:00:41;24.45;;;15.35;;
4525;SDS011;2275;52.208;8.804;2022-09-24T12:03:15;25.40;;;16.35;;
4525;SDS011;2275;52.208;8.804;2022-09-24T12:05:47;26.17;;;17.77;;
4525;SDS011;2275;52.208;8.804;2022-09-24T12:08:17;32.40;;;20.02;;
4525;SDS011;2275;52.208;8.804;2022-09-24T12:10:47;24.52;;;16.60;;
4525;SDS011;2275;52.208;8.804;2022-09-24T12:16:09;30.88;;;18.70;;
4525;SDS011;2275;52.208;8.804;2022-09-24T12:18:44;28.50;;;20.50;;
4525;SDS011;2275;52.208;8.804;2022-09-24T12:21:17;31.27;;;20.30;;
4525;SDS011;2275;52.208;8.804;2022-09-24T12:23:43;33.20;;;23.12;;
4525;SDS011;2275;52.208;8.804;2022-09-24T12:26:10;45.40;;;29.33;;
4525;SDS011;2275;52.208;8.804;2022-09-24T12:28:42;33.92;;;21.25;;
4525;SDS011;2275;52.208;8.804;2022-09-24T12:31:41;32.47;;;19.95;;
4525;SDS011;2275;52.208;8.804;2022-09-24T12:34:37;30.52;;;20.35;;
4525;SDS011;2275;52.208;8.804;2022-09-24T12:37:08;28.65;;;18.60;;
4525;SDS011;2275;52.208;8.804;2022-09-24T12:39:35;34.67;;;20.30;;
4525;SDS011;2275;52.208;8.804;2022-09-24T12:42:02;29.85;;;20.30;;
4525;SDS011;2275;52.208;8.804;2022-09-24T12:44:33;33.97;;;22.95;;
4525;SDS011;2275;52.208;8.804;2022-09-24T12:47:01;38.63;;;25.48;;
4525;SDS011;2275;52.208;8.804;2022-09-24T12:49:30;29.60;;;20.42;;
4525;SDS011;2275;52.208;8.804;2022-09-24T12:52:15;28.92;;;21.37;;
4525;SDS011;2275;52.208;8.804;2022-09-24T12:54:36;28.65;;;21.30;;
4525;SDS011;2275;52.208;8.804;2022-09-24T12:57:06;31.92;;;24.02;;
4525;SDS011;2275;52.208;8.804;2022-09-24T12:59:45;36.28;;;24.48;;
4525;SDS011;2275;52.208;8.804;2022-09-24T13:02:22;34.60;;;22.87;;
4525;SDS011;2275;52.208;8.804;2022-09-24T13:05:01;33.05;;;22.35;;
4525;SDS011;2275;52.208;8.804;2022-09-24T13:07:36;33.47;;;22.65;;
4525;SDS011;2275;52.208;8.804;2022-09-24T13:10:10;38.33;;;25.60;;
4525;SDS011;2275;52.208;8.804;2022-09-24T13:12:47;39.20;;;24.15;;
4525;SDS011;2275;52.208;8.804;2022-09-24T13:15:20;36.20;;;25.70;;
4525;SDS011;2275;52.208;8.804;2022-09-24T13:17:58;38.25;;;26.77;;
4525;SDS011;2275;52.208;8.804;2022-09-24T13:20:23;39.22;;;25.88;;
4525;SDS011;2275;52.208;8.804;2022-09-24T13:22:59;43.35;;;26.10;;
4525;SDS011;2275;52.208;8.804;2022-09-24T13:25:32;38.50;;;28.67;;
4525;SDS011;2275;52.208;8.804;2022-09-24T13:28:00;39.22;;;27.80;;
4525;SDS011;2275;52.208;8.804;2022-09-24T13:30:32;40.75;;;29.12;;
4525;SDS011;2275;52.208;8.804;2022-09-24T13:33:02;37.85;;;27.55;;
4525;SDS011;2275;52.208;8.804;2022-09-24T13:35:58;40.05;;;26.80;;
4525;SDS011;2275;52.208;8.804;2022-09-24T13:38:19;48.78;;;32.78;;
4525;SDS011;2275;52.208;8.804;2022-09-24T13:40:50;69.37;;;44.33;;
4525;SDS011;2275;52.208;8.804;2022-09-24T13:43:18;42.30;;;29.08;;
4525;SDS011;2275;52.208;8.804;2022-09-24T13:45:43;38.42;;;27.13;;
4525;SDS011;2275;52.208;8.804;2022-09-24T13:48:14;41.40;;;28.48;;
4525;SDS011;2275;52.208;8.804;2022-09-24T13:50:47;43.47;;;29.40;;
4525;SDS011;2275;52.208;8.804;2022-09-24T13:53:16;46.90;;;35.65;;
4525;SDS011;2275;52.208;8.804;2022-09-24T13:55:44;40.38;;;29.58;;
4525;SDS011;2275;52.208;8.804;2022-09-24T14:00:50;45.92;;;28.35;;
4525;SDS011;2275;52.208;8.804;2022-09-24T14:03:20;43.78;;;29.80;;
4525;SDS011;2275;52.208;8.804;2022-09-24T14:05:47;43.22;;;29.00;;
4525;SDS011;2275;52.208;8.804;2022-09-24T14:08:14;44.35;;;29.60;;
4525;SDS011;2275;52.208;8.804;2022-09-24T14:10:41;40.00;;;28.98;;
4525;SDS011;2275;52.208;8.804;2022-09-24T14:13:13;42.45;;;28.23;;
4525;SDS011;2275;52.208;8.804;2022-09-24T14:15:49;39.13;;;26.27;;
4525;SDS011;2275;52.208;8.804;2022-09-24T14:18:16;37.80;;;24.98;;
4525;SDS011;2275;52.208;8.804;2022-09-24T14:20:44;36.92;;;24.83;;
4525;SDS011;2275;52.208;8.804;2022-09-24T14:23:14;37.65;;;25.70;;
4525;SDS011;2275;52.208;8.804;2022-09-24T14:25:39;37.50;;;24.70;;
4525;SDS011;2275;52.208;8.804;2022-09-24T14:28:06;41.17;;;28.23;;
4525;SDS011;2275;52.208;8.804;2022-09-24T14:30:33;30.90;;;21.77;;
4525;SDS011;2275;52.208;8.804;2022-09-24T14:33:02;33.83;;;23.48;;
4525;SDS011;2275;52.208;8.804;2022-09-24T14:35:33;32.00;;;22.48;;
4525;SDS011;2275;52.208;8.804;2022-09-24T14:38:02;33.65;;;21.37;;
4525;SDS011;2275;52.208;8.804;2022-09-24T14:40:39;32.97;;;21.83;;
4525;SDS011;2275;52.208;8.804;2022-09-24T14:43:10;30.52;;;21.65;;
4525;SDS011;2275;52.208;8.804;2022-09-24T14:45:35;36.53;;;23.25;;
4525;SDS011;2275;52.208;8.804;2022-09-24T14:48:23;32.10;;;22.15;;
4525;SDS011;2275;52.208;8.804;2022-09-24T14:50:52;33.75;;;21.55;;
4525;SDS011;2275;52.208;8.804;2022-09-24T14:53:20;30.37;;;22.05;;
4525;SDS011;2275;52.208;8.804;2022-09-24T14:55:49;30.50;;;21.77;;
4525;SDS011;2275;52.208;8.804;2022-09-24T15:00:52;32.08;;;20.45;;
4525;SDS011;2275;52.208;8.804;2022-09-24T15:03:24;30.73;;;21.52;;
4525;SDS011;2275;52.208;8.804;2022-09-24T15:05:48;29.40;;;21.08;;
4525;SDS011;2275;52.208;8.804;2022-09-24T15:11:00;32.13;;;20.35;;
4525;SDS011;2275;52.208;8.804;2022-09-24T15:13:36;30.77;;;20.60;;
4525;SDS011;2275;52.208;8.804;2022-09-24T15:16:04;34.28;;;24.23;;
4525;SDS011;2275;52.208;8.804;2022-09-24T15:18:31;33.00;;;23.40;;
4525;SDS011;2275;52.208;8.804;2022-09-24T15:20:59;30.65;;;21.37;;
4525;SDS011;2275;52.208;8.804;2022-09-24T15:23:26;32.20;;;22.23;;
4525;SDS011;2275;52.208;8.804;2022-09-24T15:25:53;31.60;;;22.10;;
4525;SDS011;2275;52.208;8.804;2022-09-24T15:28:20;34.90;;;22.80;;
4525;SDS011;2275;52.208;8.804;2022-09-24T15:30:49;32.63;;;23.40;;
4525;SDS011;2275;52.208;8.804;2022-09-24T15:33:20;31.20;;;21.75;;
4525;SDS011;2275;52.208;8.804;2022-09-24T15:35:47;33.10;;;21.92;;
4525;SDS011;2275;52.208;8.804;2022-09-24T15:38:15;34.92;;;21.40;;
4525;SDS011;2275;52.208;8.804;2022-09-24T15:40:43;31.62;;;21.77;;
4525;SDS011;2275;52.208;8.804;2022-09-24T15:43:17;36.60;;;22.62;;
4525;SDS011;2275;52.208;8.804;2022-09-24T15:45:43;31.83;;;21.27;;
4525;SDS011;2275;52.208;8.804;2022-09-24T15:48:10;35.10;;;22.62;;
4525;SDS011;2275;52.208;8.804;2022-09-24T15:50:38;32.70;;;21.45;;